sensor_id;sensor_type;location;lat;lon;timestamp;temperature;humidity
61392;DHT22;47261;52.892;5.738;2023-08-07T00:00:23;16.20;99.90
61392;DHT22;47261;52.892;5.738;2023-08-07T00:02:48;16.20;99.90
61392;DHT22;47261;52.892;5.738;2023-08-07T00:05:14;16.20;99.90
61392;DHT22;47261;52.892;5.738;2023-08-07T00:07:42;16.10;99.90
61392;DHT22;47261;52.892;5.738;2023-08-07T00:10:08;16.10;99.90
61392;DHT22;47261;52.892;5.738;2023-08-07T00:12:34;16.10;99.90
61392;DHT22;47261;52.892;5.738;2023-08-07T00:15:00;16.00;99.90
61392;DHT22;47261;52.892;5.738;2023-08-07T00:17:26;16.00;99.90
61392;DHT22;47261;52.892;5.738;2023-08-07T00:19:52;15.90;99.90
61392;DHT22;47261;52.892;5.738;2023-08-07T00:22:17;15.90;99.90
61392;DHT22;47261;52.892;5.738;2023-08-07T00:24:43;15.90;99.90
61392;DHT22;47261;52.892;5.738;2023-08-07T00:27:09;15.80;99.90
61392;DHT22;47261;52.892;5.738;2023-08-07T00:29:38;15.80;99.90
61392;DHT22;47261;52.892;5.738;2023-08-07T00:32:04;15.80;99.90
61392;DHT22;47261;52.892;5.738;2023-08-07T00:34:30;15.80;99.90
61392;DHT22;47261;52.892;5.738;2023-08-07T00:36:55;15.80;99.90
61392;DHT22;47261;52.892;5.738;2023-08-07T00:39:21;15.80;99.90
61392;DHT22;47261;52.892;5.738;2023-08-07T00:41:47;15.80;99.90
61392;DHT22;47261;52.892;5.738;2023-08-07T00:44:12;15.80;99.90
61392;DHT22;47261;52.892;5.738;2023-08-07T00:46:39;15.80;99.90
61392;DHT22;47261;52.892;5.738;2023-08-07T00:49:05;15.80;99.90
61392;DHT22;47261;52.892;5.738;2023-08-07T00:51:32;15.80;99.90
61392;DHT22;47261;52.892;5.738;2023-08-07T00:53:59;15.80;99.90
61392;DHT22;47261;52.892;5.738;2023-08-07T00:56:26;15.80;99.90
61392;DHT22;47261;52.892;5.738;2023-08-07T00:58:53;15.80;99.90
61392;DHT22;47261;52.892;5.738;2023-08-07T01:01:19;15.90;99.90
61392;DHT22;47261;52.892;5.738;2023-08-07T01:03:44;15.90;99.90
61392;DHT22;47261;52.892;5.738;2023-08-07T01:06:10;15.90;99.90
61392;DHT22;47261;52.892;5.738;2023-08-07T01:08:36;15.90;99.90
61392;DHT22;47261;52.892;5.738;2023-08-07T01:16:26;15.90;99.90
61392;DHT22;47261;52.892;5.738;2023-08-07T01:18:54;15.90;99.90
61392;DHT22;47261;52.892;5.738;2023-08-07T01:21:21;15.90;99.90
61392;DHT22;47261;52.892;5.738;2023-08-07T01:23:47;15.90;99.90
61392;DHT22;47261;52.892;5.738;2023-08-07T01:26:17;15.90;99.90
61392;DHT22;47261;52.892;5.738;2023-08-07T01:29:02;15.90;99.90
61392;DHT22;47261;52.892;5.738;2023-08-07T01:31:33;15.90;99.90
61392;DHT22;47261;52.892;5.738;2023-08-07T01:34:04;15.90;99.90
61392;DHT22;47261;52.892;5.738;2023-08-07T01:36:30;15.80;99.90
61392;DHT22;47261;52.892;5.738;2023-08-07T01:39:00;15.80;99.90
61392;DHT22;47261;52.892;5.738;2023-08-07T01:41:27;15.80;99.90
61392;DHT22;47261;52.892;5.738;2023-08-07T01:43:54;15.80;99.90
61392;DHT22;47261;52.892;5.738;2023-08-07T01:46:20;15.80;99.90
61392;DHT22;47261;52.892;5.738;2023-08-07T01:48:46;15.80;99.90
61392;DHT22;47261;52.892;5.738;2023-08-07T01:51:12;15.80;99.90
61392;DHT22;47261;52.892;5.738;2023-08-07T01:53:37;15.80;99.90
61392;DHT22;47261;52.892;5.738;2023-08-07T01:56:03;15.80;99.90
61392;DHT22;47261;52.892;5.738;2023-08-07T01:58:29;15.80;99.90
61392;DHT22;47261;52.892;5.738;2023-08-07T02:00:54;15.80;99.90
61392;DHT22;47261;52.892;5.738;2023-08-07T02:03:20;15.80;99.90
61392;DHT22;47261;52.892;5.738;2023-08-07T02:05:46;15.80;99.90
61392;DHT22;47261;52.892;5.738;2023-08-07T02:08:12;15.80;99.90
61392;DHT22;47261;52.892;5.738;2023-08-07T02:10:38;15.80;99.90
61392;DHT22;47261;52.892;5.738;2023-08-07T02:13:04;15.70;99.90
61392;DHT22;47261;52.892;5.738;2023-08-07T02:15:29;15.70;99.90
61392;DHT22;47261;52.892;5.738;2023-08-07T02:17:55;15.70;99.90
61392;DHT22;47261;52.892;5.738;2023-08-07T02:20:21;15.70;99.90
61392;DHT22;47261;52.892;5.738;2023-08-07T02:22:46;15.70;99.90
61392;DHT22;47261;52.892;5.738;2023-08-07T02:25:12;15.70;99.90
61392;DHT22;47261;52.892;5.738;2023-08-07T02:27:38;15.70;99.90
61392;DHT22;47261;52.892;5.738;2023-08-07T02:30:05;15.70;99.90
61392;DHT22;47261;52.892;5.738;2023-08-07T02:32:30;15.60;99.90
61392;DHT22;47261;52.892;5.738;2023-08-07T02:34:56;15.70;99.90
61392;DHT22;47261;52.892;5.738;2023-08-07T02:37:22;15.70;99.90
61392;DHT22;47261;52.892;5.738;2023-08-07T02:39:48;15.70;99.90
61392;DHT22;47261;52.892;5.738;2023-08-07T02:42:13;15.70;99.90
61392;DHT22;47261;52.892;5.738;2023-08-07T02:44:39;15.70;99.90
61392;DHT22;47261;52.892;5.738;2023-08-07T02:47:05;15.70;99.90
61392;DHT22;47261;52.892;5.738;2023-08-07T02:49:31;15.70;99.90
61392;DHT22;47261;52.892;5.738;2023-08-07T02:51:56;15.70;99.90
61392;DHT22;47261;52.892;5.738;2023-08-07T02:54:22;15.70;99.90
61392;DHT22;47261;52.892;5.738;2023-08-07T02:56:48;15.70;99.90
61392;DHT22;47261;52.892;5.738;2023-08-07T02:59:14;15.70;99.90
61392;DHT22;47261;52.892;5.738;2023-08-07T03:01:40;15.70;99.90
61392;DHT22;47261;52.892;5.738;2023-08-07T03:04:06;15.70;99.90
61392;DHT22;47261;52.892;5.738;2023-08-07T03:06:31;15.60;99.90
61392;DHT22;47261;52.892;5.738;2023-08-07T03:08:57;15.60;99.90
61392;DHT22;47261;52.892;5.738;2023-08-07T03:11:23;15.60;99.90
61392;DHT22;47261;52.892;5.738;2023-08-07T03:13:49;15.60;99.90
61392;DHT22;47261;52.892;5.738;2023-08-07T03:16:14;15.60;99.90
61392;DHT22;47261;52.892;5.738;2023-08-07T03:18:40;15.60;99.90
61392;DHT22;47261;52.892;5.738;2023-08-07T03:21:06;15.60;99.90
61392;DHT22;47261;52.892;5.738;2023-08-07T03:23:32;15.60;99.90
61392;DHT22;47261;52.892;5.738;2023-08-07T03:26:09;15.60;99.90
61392;DHT22;47261;52.892;5.738;2023-08-07T03:28:35;15.60;99.90
61392;DHT22;47261;52.892;5.738;2023-08-07T03:31:01;15.70;99.90
61392;DHT22;47261;52.892;5.738;2023-08-07T03:33:27;15.70;99.90
61392;DHT22;47261;52.892;5.738;2023-08-07T03:35:53;15.70;99.90
61392;DHT22;47261;52.892;5.738;2023-08-07T03:38:19;15.70;99.90
61392;DHT22;47261;52.892;5.738;2023-08-07T03:40:45;15.70;99.90
61392;DHT22;47261;52.892;5.738;2023-08-07T03:43:10;15.70;99.90
61392;DHT22;47261;52.892;5.738;2023-08-07T03:45:36;15.70;99.90
61392;DHT22;47261;52.892;5.738;2023-08-07T03:48:02;15.70;99.90
61392;DHT22;47261;52.892;5.738;2023-08-07T03:50:28;15.70;99.90
61392;DHT22;47261;52.892;5.738;2023-08-07T03:52:55;15.70;99.90
61392;DHT22;47261;52.892;5.738;2023-08-07T03:55:21;15.70;99.90
61392;DHT22;47261;52.892;5.738;2023-08-07T03:57:46;15.70;99.90
61392;DHT22;47261;52.892;5.738;2023-08-07T04:00:12;15.70;99.90
61392;DHT22;47261;52.892;5.738;2023-08-07T04:02:39;15.70;99.90
61392;DHT22;47261;52.892;5.738;2023-08-07T04:05:04;15.70;99.90
61392;DHT22;47261;52.892;5.738;2023-08-07T04:07:30;15.70;99.90
61392;DHT22;47261;52.892;5.738;2023-08-07T04:09:56;15.70;99.90
61392;DHT22;47261;52.892;5.738;2023-08-07T04:12:21;15.70;99.90
61392;DHT22;47261;52.892;5.738;2023-08-07T04:14:47;15.70;99.90
61392;DHT22;47261;52.892;5.738;2023-08-07T04:17:13;15.70;99.90
61392;DHT22;47261;52.892;5.738;2023-08-07T04:19:38;15.70;99.90
61392;DHT22;47261;52.892;5.738;2023-08-07T04:22:04;15.70;99.90
61392;DHT22;47261;52.892;5.738;2023-08-07T04:24:30;15.70;99.90
61392;DHT22;47261;52.892;5.738;2023-08-07T04:26:55;15.80;99.90
61392;DHT22;47261;52.892;5.738;2023-08-07T04:29:21;15.70;99.90
61392;DHT22;47261;52.892;5.738;2023-08-07T04:31:47;15.70;99.90
61392;DHT22;47261;52.892;5.738;2023-08-07T04:34:12;15.70;99.90
61392;DHT22;47261;52.892;5.738;2023-08-07T04:36:38;15.70;99.90
61392;DHT22;47261;52.892;5.738;2023-08-07T04:39:04;15.70;99.90
61392;DHT22;47261;52.892;5.738;2023-08-07T04:41:30;15.60;99.90
61392;DHT22;47261;52.892;5.738;2023-08-07T04:43:55;15.60;99.90
61392;DHT22;47261;52.892;5.738;2023-08-07T04:46:21;15.60;99.90
61392;DHT22;47261;52.892;5.738;2023-08-07T04:48:47;15.60;99.90
61392;DHT22;47261;52.892;5.738;2023-08-07T04:51:14;15.60;99.90
61392;DHT22;47261;52.892;5.738;2023-08-07T04:53:40;15.50;99.90
61392;DHT22;47261;52.892;5.738;2023-08-07T04:56:06;15.50;99.90
61392;DHT22;47261;52.892;5.738;2023-08-07T04:58:32;15.50;99.90
61392;DHT22;47261;52.892;5.738;2023-08-07T05:00:58;15.70;99.90
61392;DHT22;47261;52.892;5.738;2023-08-07T05:03:24;15.80;99.90
61392;DHT22;47261;52.892;5.738;2023-08-07T05:05:50;15.90;99.90
61392;DHT22;47261;52.892;5.738;2023-08-07T05:08:17;16.00;99.90
61392;DHT22;47261;52.892;5.738;2023-08-07T05:10:42;15.90;99.90
61392;DHT22;47261;52.892;5.738;2023-08-07T05:13:08;15.90;99.90
61392;DHT22;47261;52.892;5.738;2023-08-07T05:15:34;15.80;99.90
61392;DHT22;47261;52.892;5.738;2023-08-07T05:17:59;15.80;99.90
61392;DHT22;47261;52.892;5.738;2023-08-07T05:20:25;15.80;99.90
61392;DHT22;47261;52.892;5.738;2023-08-07T05:22:51;15.80;99.90
61392;DHT22;47261;52.892;5.738;2023-08-07T05:25:17;15.70;99.90
61392;DHT22;47261;52.892;5.738;2023-08-07T05:27:47;15.70;99.90
61392;DHT22;47261;52.892;5.738;2023-08-07T05:30:13;15.60;99.90
61392;DHT22;47261;52.892;5.738;2023-08-07T05:32:39;15.60;99.90
61392;DHT22;47261;52.892;5.738;2023-08-07T05:35:05;15.60;99.90
61392;DHT22;47261;52.892;5.738;2023-08-07T05:37:32;15.60;99.90
61392;DHT22;47261;52.892;5.738;2023-08-07T05:39:58;15.60;99.90
61392;DHT22;47261;52.892;5.738;2023-08-07T05:42:24;15.70;99.90
61392;DHT22;47261;52.892;5.738;2023-08-07T05:44:49;15.70;99.90
61392;DHT22;47261;52.892;5.738;2023-08-07T05:47:15;15.70;99.90
61392;DHT22;47261;52.892;5.738;2023-08-07T05:49:40;15.70;99.90
61392;DHT22;47261;52.892;5.738;2023-08-07T05:52:07;15.70;99.90
61392;DHT22;47261;52.892;5.738;2023-08-07T05:54:33;15.70;99.90
61392;DHT22;47261;52.892;5.738;2023-08-07T05:56:58;15.70;99.90
61392;DHT22;47261;52.892;5.738;2023-08-07T05:59:24;15.80;99.90
61392;DHT22;47261;52.892;5.738;2023-08-07T06:01:50;15.80;99.90
61392;DHT22;47261;52.892;5.738;2023-08-07T06:04:16;15.80;99.90
61392;DHT22;47261;52.892;5.738;2023-08-07T06:06:42;15.80;99.90
61392;DHT22;47261;52.892;5.738;2023-08-07T06:09:08;15.90;99.90
61392;DHT22;47261;52.892;5.738;2023-08-07T06:11:34;15.90;99.90
61392;DHT22;47261;52.892;5.738;2023-08-07T06:14:00;16.00;99.90
61392;DHT22;47261;52.892;5.738;2023-08-07T06:16:25;16.00;99.90
61392;DHT22;47261;52.892;5.738;2023-08-07T06:18:51;16.10;99.90
61392;DHT22;47261;52.892;5.738;2023-08-07T06:21:17;16.10;99.90
61392;DHT22;47261;52.892;5.738;2023-08-07T06:23:43;16.10;99.90
61392;DHT22;47261;52.892;5.738;2023-08-07T06:26:08;16.10;99.90
61392;DHT22;47261;52.892;5.738;2023-08-07T06:28:35;16.10;99.90
61392;DHT22;47261;52.892;5.738;2023-08-07T06:31:09;16.20;99.90
61392;DHT22;47261;52.892;5.738;2023-08-07T06:33:35;16.20;99.90
61392;DHT22;47261;52.892;5.738;2023-08-07T06:36:02;16.20;99.90
61392;DHT22;47261;52.892;5.738;2023-08-07T06:38:28;16.30;99.90
61392;DHT22;47261;52.892;5.738;2023-08-07T06:40:54;16.40;99.90
61392;DHT22;47261;52.892;5.738;2023-08-07T06:43:19;16.40;99.90
61392;DHT22;47261;52.892;5.738;2023-08-07T06:45:52;16.40;99.90
61392;DHT22;47261;52.892;5.738;2023-08-07T06:48:18;16.40;99.90
61392;DHT22;47261;52.892;5.738;2023-08-07T06:50:44;16.40;99.90
61392;DHT22;47261;52.892;5.738;2023-08-07T06:53:09;16.30;99.90
61392;DHT22;47261;52.892;5.738;2023-08-07T06:55:35;16.20;99.90
61392;DHT22;47261;52.892;5.738;2023-08-07T06:58:01;16.10;99.90
61392;DHT22;47261;52.892;5.738;2023-08-07T07:00:26;16.00;99.90
61392;DHT22;47261;52.892;5.738;2023-08-07T07:02:52;15.90;99.90
61392;DHT22;47261;52.892;5.738;2023-08-07T07:05:18;15.80;99.90
61392;DHT22;47261;52.892;5.738;2023-08-07T07:07:44;15.80;99.90
61392;DHT22;47261;52.892;5.738;2023-08-07T07:10:10;15.70;99.90
61392;DHT22;47261;52.892;5.738;2023-08-07T07:12:36;15.70;99.90
61392;DHT22;47261;52.892;5.738;2023-08-07T07:15:02;15.80;99.90
61392;DHT22;47261;52.892;5.738;2023-08-07T07:17:28;15.90;99.90
61392;DHT22;47261;52.892;5.738;2023-08-07T07:19:53;16.10;99.90
61392;DHT22;47261;52.892;5.738;2023-08-07T07:22:22;16.20;99.90
61392;DHT22;47261;52.892;5.738;2023-08-07T07:24:48;16.30;99.90
61392;DHT22;47261;52.892;5.738;2023-08-07T07:27:14;16.30;99.90
61392;DHT22;47261;52.892;5.738;2023-08-07T07:29:39;16.30;99.90
61392;DHT22;47261;52.892;5.738;2023-08-07T07:32:05;16.30;99.90
61392;DHT22;47261;52.892;5.738;2023-08-07T07:34:31;16.40;99.90
61392;DHT22;47261;52.892;5.738;2023-08-07T07:36:58;16.50;99.90
61392;DHT22;47261;52.892;5.738;2023-08-07T07:39:24;16.50;99.90
61392;DHT22;47261;52.892;5.738;2023-08-07T07:41:49;16.50;99.90
61392;DHT22;47261;52.892;5.738;2023-08-07T07:44:15;16.30;99.90
61392;DHT22;47261;52.892;5.738;2023-08-07T07:46:41;16.30;99.90
61392;DHT22;47261;52.892;5.738;2023-08-07T07:49:06;16.20;99.90
61392;DHT22;47261;52.892;5.738;2023-08-07T07:51:32;16.10;99.90
61392;DHT22;47261;52.892;5.738;2023-08-07T07:53:58;16.10;99.90
61392;DHT22;47261;52.892;5.738;2023-08-07T07:56:24;16.10;99.90
61392;DHT22;47261;52.892;5.738;2023-08-07T07:58:49;16.10;99.90
61392;DHT22;47261;52.892;5.738;2023-08-07T08:01:15;16.30;99.90
61392;DHT22;47261;52.892;5.738;2023-08-07T08:03:41;16.30;99.90
61392;DHT22;47261;52.892;5.738;2023-08-07T08:06:09;16.40;99.90
61392;DHT22;47261;52.892;5.738;2023-08-07T08:08:34;16.50;99.90
61392;DHT22;47261;52.892;5.738;2023-08-07T08:11:00;16.50;99.90
61392;DHT22;47261;52.892;5.738;2023-08-07T08:13:25;16.60;99.90
61392;DHT22;47261;52.892;5.738;2023-08-07T08:15:51;16.70;99.90
61392;DHT22;47261;52.892;5.738;2023-08-07T08:18:17;16.90;99.90
61392;DHT22;47261;52.892;5.738;2023-08-07T08:20:42;16.90;99.00
61392;DHT22;47261;52.892;5.738;2023-08-07T08:23:08;16.90;98.10
61392;DHT22;47261;52.892;5.738;2023-08-07T08:25:34;17.00;98.10
61392;DHT22;47261;52.892;5.738;2023-08-07T08:27:59;17.00;97.70
61392;DHT22;47261;52.892;5.738;2023-08-07T08:30:26;17.00;97.30
61392;DHT22;47261;52.892;5.738;2023-08-07T08:32:52;16.90;96.60
61392;DHT22;47261;52.892;5.738;2023-08-07T08:35:17;16.80;96.30
61392;DHT22;47261;52.892;5.738;2023-08-07T08:37:43;16.90;97.10
61392;DHT22;47261;52.892;5.738;2023-08-07T08:40:09;17.00;97.30
61392;DHT22;47261;52.892;5.738;2023-08-07T08:42:43;17.20;97.30
61392;DHT22;47261;52.892;5.738;2023-08-07T08:45:12;17.30;97.00
61392;DHT22;47261;52.892;5.738;2023-08-07T08:47:39;17.40;96.20
61392;DHT22;47261;52.892;5.738;2023-08-07T08:50:10;17.40;96.10
61392;DHT22;47261;52.892;5.738;2023-08-07T08:52:44;17.50;95.70
61392;DHT22;47261;52.892;5.738;2023-08-07T08:55:11;17.60;95.40
61392;DHT22;47261;52.892;5.738;2023-08-07T08:57:38;17.60;94.70
61392;DHT22;47261;52.892;5.738;2023-08-07T09:00:06;17.60;94.80
61392;DHT22;47261;52.892;5.738;2023-08-07T09:02:45;17.70;94.80
61392;DHT22;47261;52.892;5.738;2023-08-07T09:05:10;17.80;94.60
61392;DHT22;47261;52.892;5.738;2023-08-07T09:07:37;18.00;95.20
61392;DHT22;47261;52.892;5.738;2023-08-07T09:10:03;18.10;94.70
61392;DHT22;47261;52.892;5.738;2023-08-07T09:12:31;18.20;93.20
61392;DHT22;47261;52.892;5.738;2023-08-07T09:14:58;18.00;93.20
61392;DHT22;47261;52.892;5.738;2023-08-07T09:17:25;17.80;93.90
61392;DHT22;47261;52.892;5.738;2023-08-07T09:19:52;17.50;94.50
61392;DHT22;47261;52.892;5.738;2023-08-07T09:22:19;17.30;94.90
61392;DHT22;47261;52.892;5.738;2023-08-07T09:24:45;17.10;95.00
61392;DHT22;47261;52.892;5.738;2023-08-07T09:27:11;17.00;95.20
61392;DHT22;47261;52.892;5.738;2023-08-07T09:29:39;17.00;95.50
61392;DHT22;47261;52.892;5.738;2023-08-07T09:32:12;17.10;95.80
61392;DHT22;47261;52.892;5.738;2023-08-07T09:34:42;17.30;96.10
61392;DHT22;47261;52.892;5.738;2023-08-07T09:37:11;17.50;96.50
61392;DHT22;47261;52.892;5.738;2023-08-07T09:39:37;17.80;96.40
61392;DHT22;47261;52.892;5.738;2023-08-07T09:42:03;18.00;96.30
61392;DHT22;47261;52.892;5.738;2023-08-07T09:44:36;18.10;95.60
61392;DHT22;47261;52.892;5.738;2023-08-07T09:47:12;18.20;95.40
61392;DHT22;47261;52.892;5.738;2023-08-07T09:49:39;18.40;95.50
61392;DHT22;47261;52.892;5.738;2023-08-07T09:52:06;18.70;95.70
61392;DHT22;47261;52.892;5.738;2023-08-07T09:54:33;18.90;95.10
61392;DHT22;47261;52.892;5.738;2023-08-07T09:57:01;19.00;92.80
61392;DHT22;47261;52.892;5.738;2023-08-07T09:59:27;19.00;92.10
61392;DHT22;47261;52.892;5.738;2023-08-07T10:01:54;19.20;93.10
61392;DHT22;47261;52.892;5.738;2023-08-07T10:04:23;19.30;92.30
61392;DHT22;47261;52.892;5.738;2023-08-07T10:06:50;19.20;90.70
61392;DHT22;47261;52.892;5.738;2023-08-07T10:09:16;19.20;90.90
61392;DHT22;47261;52.892;5.738;2023-08-07T10:11:42;19.10;91.00
61392;DHT22;47261;52.892;5.738;2023-08-07T10:14:12;19.00;90.80
61392;DHT22;47261;52.892;5.738;2023-08-07T10:16:40;19.10;91.20
61392;DHT22;47261;52.892;5.738;2023-08-07T10:19:07;19.20;91.20
61392;DHT22;47261;52.892;5.738;2023-08-07T10:21:35;19.30;91.00
61392;DHT22;47261;52.892;5.738;2023-08-07T10:24:03;19.20;90.50
61392;DHT22;47261;52.892;5.738;2023-08-07T10:26:31;19.00;90.50
61392;DHT22;47261;52.892;5.738;2023-08-07T10:29:00;19.00;91.00
61392;DHT22;47261;52.892;5.738;2023-08-07T10:31:27;18.90;91.30
61392;DHT22;47261;52.892;5.738;2023-08-07T10:33:53;18.90;91.20
61392;DHT22;47261;52.892;5.738;2023-08-07T10:36:19;19.00;91.40
61392;DHT22;47261;52.892;5.738;2023-08-07T10:38:45;19.20;91.40
61392;DHT22;47261;52.892;5.738;2023-08-07T10:41:14;19.50;90.80
61392;DHT22;47261;52.892;5.738;2023-08-07T10:43:44;19.80;90.70
61392;DHT22;47261;52.892;5.738;2023-08-07T10:46:12;20.00;89.60
61392;DHT22;47261;52.892;5.738;2023-08-07T10:48:43;20.00;87.90
61392;DHT22;47261;52.892;5.738;2023-08-07T10:51:17;19.80;88.10
61392;DHT22;47261;52.892;5.738;2023-08-07T10:53:45;19.80;89.20
61392;DHT22;47261;52.892;5.738;2023-08-07T10:56:33;19.80;87.80
61392;DHT22;47261;52.892;5.738;2023-08-07T10:59:11;19.70;87.90
61392;DHT22;47261;52.892;5.738;2023-08-07T11:01:43;19.60;88.30
61392;DHT22;47261;52.892;5.738;2023-08-07T11:04:10;19.70;87.90
61392;DHT22;47261;52.892;5.738;2023-08-07T11:06:37;19.90;88.10
61392;DHT22;47261;52.892;5.738;2023-08-07T11:09:05;20.10;87.80
61392;DHT22;47261;52.892;5.738;2023-08-07T11:11:39;20.10;87.30
61392;DHT22;47261;52.892;5.738;2023-08-07T11:14:09;20.10;84.00
61392;DHT22;47261;52.892;5.738;2023-08-07T11:16:35;19.90;84.20
61392;DHT22;47261;52.892;5.738;2023-08-07T11:19:02;19.80;85.30
61392;DHT22;47261;52.892;5.738;2023-08-07T11:21:30;19.90;86.60
61392;DHT22;47261;52.892;5.738;2023-08-07T11:23:56;20.10;87.50
61392;DHT22;47261;52.892;5.738;2023-08-07T11:26:22;20.40;86.70
61392;DHT22;47261;52.892;5.738;2023-08-07T11:28:50;20.70;86.90
61392;DHT22;47261;52.892;5.738;2023-08-07T11:31:20;20.90;85.50
61392;DHT22;47261;52.892;5.738;2023-08-07T11:33:46;21.00;83.60
61392;DHT22;47261;52.892;5.738;2023-08-07T11:36:13;21.00;83.30
61392;DHT22;47261;52.892;5.738;2023-08-07T11:38:43;20.90;82.50
61392;DHT22;47261;52.892;5.738;2023-08-07T11:41:10;20.80;83.30
61392;DHT22;47261;52.892;5.738;2023-08-07T11:43:37;20.70;82.70
61392;DHT22;47261;52.892;5.738;2023-08-07T11:46:04;20.60;81.70
61392;DHT22;47261;52.892;5.738;2023-08-07T11:48:34;20.50;83.50
61392;DHT22;47261;52.892;5.738;2023-08-07T11:51:01;20.40;82.90
61392;DHT22;47261;52.892;5.738;2023-08-07T11:53:29;20.20;82.90
61392;DHT22;47261;52.892;5.738;2023-08-07T11:56:00;20.00;85.00
61392;DHT22;47261;52.892;5.738;2023-08-07T11:58:42;19.70;85.80
61392;DHT22;47261;52.892;5.738;2023-08-07T12:01:22;19.60;88.30
61392;DHT22;47261;52.892;5.738;2023-08-07T12:04:09;19.80;89.80
61392;DHT22;47261;52.892;5.738;2023-08-07T12:06:35;20.00;89.70
61392;DHT22;47261;52.892;5.738;2023-08-07T12:09:02;20.00;87.70
61392;DHT22;47261;52.892;5.738;2023-08-07T12:11:29;19.90;87.10
61392;DHT22;47261;52.892;5.738;2023-08-07T12:13:55;19.80;86.40
61392;DHT22;47261;52.892;5.738;2023-08-07T12:16:20;19.70;86.10
61392;DHT22;47261;52.892;5.738;2023-08-07T12:18:51;19.40;86.70
61392;DHT22;47261;52.892;5.738;2023-08-07T12:21:18;19.20;88.80
61392;DHT22;47261;52.892;5.738;2023-08-07T12:23:45;18.80;90.40
61392;DHT22;47261;52.892;5.738;2023-08-07T12:26:13;18.40;91.10
61392;DHT22;47261;52.892;5.738;2023-08-07T12:28:38;18.10;92.00
61392;DHT22;47261;52.892;5.738;2023-08-07T12:31:04;17.80;92.90
61392;DHT22;47261;52.892;5.738;2023-08-07T12:33:30;17.40;93.40
61392;DHT22;47261;52.892;5.738;2023-08-07T12:35:56;17.20;94.30
61392;DHT22;47261;52.892;5.738;2023-08-07T12:38:22;16.90;95.80
61392;DHT22;47261;52.892;5.738;2023-08-07T12:40:47;16.80;96.90
61392;DHT22;47261;52.892;5.738;2023-08-07T12:43:13;16.60;97.60
61392;DHT22;47261;52.892;5.738;2023-08-07T12:45:39;16.40;98.00
61392;DHT22;47261;52.892;5.738;2023-08-07T12:48:04;16.30;98.20
61392;DHT22;47261;52.892;5.738;2023-08-07T12:50:30;16.30;98.60
61392;DHT22;47261;52.892;5.738;2023-08-07T12:52:56;16.30;98.80
61392;DHT22;47261;52.892;5.738;2023-08-07T12:55:22;16.40;99.20
61392;DHT22;47261;52.892;5.738;2023-08-07T12:57:48;16.50;99.90
61392;DHT22;47261;52.892;5.738;2023-08-07T13:00:15;16.70;99.90
61392;DHT22;47261;52.892;5.738;2023-08-07T13:02:42;16.90;99.90
61392;DHT22;47261;52.892;5.738;2023-08-07T13:05:08;17.00;99.90
61392;DHT22;47261;52.892;5.738;2023-08-07T13:07:38;17.10;99.90
61392;DHT22;47261;52.892;5.738;2023-08-07T13:10:05;17.30;99.90
61392;DHT22;47261;52.892;5.738;2023-08-07T13:12:37;17.40;99.90
61392;DHT22;47261;52.892;5.738;2023-08-07T13:15:04;17.50;99.80
61392;DHT22;47261;52.892;5.738;2023-08-07T13:17:31;17.60;99.00
61392;DHT22;47261;52.892;5.738;2023-08-07T13:19:58;17.60;97.90
61392;DHT22;47261;52.892;5.738;2023-08-07T13:22:25;17.60;97.70
61392;DHT22;47261;52.892;5.738;2023-08-07T13:24:50;17.70;98.00
61392;DHT22;47261;52.892;5.738;2023-08-07T13:27:16;18.00;97.70
61392;DHT22;47261;52.892;5.738;2023-08-07T13:29:42;18.10;97.30
61392;DHT22;47261;52.892;5.738;2023-08-07T13:32:07;18.30;96.80
61392;DHT22;47261;52.892;5.738;2023-08-07T13:34:36;18.30;95.60
61392;DHT22;47261;52.892;5.738;2023-08-07T13:37:05;18.10;94.70
61392;DHT22;47261;52.892;5.738;2023-08-07T13:39:32;18.00;94.80
61392;DHT22;47261;52.892;5.738;2023-08-07T13:41:58;17.80;94.80
61392;DHT22;47261;52.892;5.738;2023-08-07T13:44:25;17.70;95.00
61392;DHT22;47261;52.892;5.738;2023-08-07T13:46:51;17.60;95.00
61392;DHT22;47261;52.892;5.738;2023-08-07T13:49:16;17.60;95.30
61392;DHT22;47261;52.892;5.738;2023-08-07T13:51:42;17.60;95.60
61392;DHT22;47261;52.892;5.738;2023-08-07T13:54:08;17.60;95.70
61392;DHT22;47261;52.892;5.738;2023-08-07T13:56:34;17.60;96.00
61392;DHT22;47261;52.892;5.738;2023-08-07T13:58:59;17.60;95.80
61392;DHT22;47261;52.892;5.738;2023-08-07T14:01:26;17.50;95.90
61392;DHT22;47261;52.892;5.738;2023-08-07T14:03:52;17.40;96.10
61392;DHT22;47261;52.892;5.738;2023-08-07T14:06:17;17.30;96.40
61392;DHT22;47261;52.892;5.738;2023-08-07T14:08:43;17.20;96.60
61392;DHT22;47261;52.892;5.738;2023-08-07T14:11:09;17.20;96.90
61392;DHT22;47261;52.892;5.738;2023-08-07T14:13:34;17.20;96.80
61392;DHT22;47261;52.892;5.738;2023-08-07T14:16:00;17.40;96.80
61392;DHT22;47261;52.892;5.738;2023-08-07T14:18:26;17.60;96.80
61392;DHT22;47261;52.892;5.738;2023-08-07T14:20:52;17.70;95.30
61392;DHT22;47261;52.892;5.738;2023-08-07T14:23:18;17.80;94.20
61392;DHT22;47261;52.892;5.738;2023-08-07T14:25:44;17.80;94.10
61392;DHT22;47261;52.892;5.738;2023-08-07T14:28:10;17.90;94.40
61392;DHT22;47261;52.892;5.738;2023-08-07T14:30:36;18.00;93.80
61392;DHT22;47261;52.892;5.738;2023-08-07T14:33:01;18.10;93.60
61392;DHT22;47261;52.892;5.738;2023-08-07T14:35:27;18.00;93.50
61392;DHT22;47261;52.892;5.738;2023-08-07T14:37:53;18.00;93.20
61392;DHT22;47261;52.892;5.738;2023-08-07T14:40:18;17.90;93.20
61392;DHT22;47261;52.892;5.738;2023-08-07T14:42:44;17.90;93.60
61392;DHT22;47261;52.892;5.738;2023-08-07T14:45:11;18.00;94.00
61392;DHT22;47261;52.892;5.738;2023-08-07T14:47:36;18.20;94.60
61392;DHT22;47261;52.892;5.738;2023-08-07T14:50:02;18.50;93.90
61392;DHT22;47261;52.892;5.738;2023-08-07T14:52:28;18.60;93.10
61392;DHT22;47261;52.892;5.738;2023-08-07T14:54:53;18.60;92.50
61392;DHT22;47261;52.892;5.738;2023-08-07T14:57:22;18.40;92.10
61392;DHT22;47261;52.892;5.738;2023-08-07T14:59:48;18.20;92.40
61392;DHT22;47261;52.892;5.738;2023-08-07T15:02:14;18.10;92.50
61392;DHT22;47261;52.892;5.738;2023-08-07T15:04:39;18.00;92.50
61392;DHT22;47261;52.892;5.738;2023-08-07T15:07:05;18.00;92.70
61392;DHT22;47261;52.892;5.738;2023-08-07T15:09:31;17.90;93.00
61392;DHT22;47261;52.892;5.738;2023-08-07T15:11:56;17.90;92.90
61392;DHT22;47261;52.892;5.738;2023-08-07T15:14:22;17.80;92.70
61392;DHT22;47261;52.892;5.738;2023-08-07T15:16:48;17.70;92.50
61392;DHT22;47261;52.892;5.738;2023-08-07T15:19:14;17.60;92.90
61392;DHT22;47261;52.892;5.738;2023-08-07T15:21:39;17.70;93.30
61392;DHT22;47261;52.892;5.738;2023-08-07T15:24:06;17.90;93.80
61392;DHT22;47261;52.892;5.738;2023-08-07T15:26:31;18.00;92.70
61392;DHT22;47261;52.892;5.738;2023-08-07T15:28:57;18.00;92.50
61392;DHT22;47261;52.892;5.738;2023-08-07T15:31:23;18.00;92.80